Time;durP1;ratioP1;P1;durP2;ratioP2;P2;SDS_P1;SDS_P2;PMS_P1;PMS_P2;Temp;Humidity;BMP_temperature;BMP_pressure;BME280_temperature;BME280_humidity;BME280_pressure;Samples;Min_cycle;Max_cycle;Signal;HPM_P1;HPM_P2
2023/07/06 00:00:14;;;;;;;3.77;2.40;;;19.90;93.00;;;;;;4993817;28;20175;-69
2023/07/06 00:02:39;;;;;;;3.97;2.23;;;19.80;93.10;;;;;;4993730;28;20672;-68
2023/07/06 00:05:06;;;;;;;4.03;2.53;;;19.70;93.20;;;;;;4993647;28;20463;-69
2023/07/06 00:07:31;;;;;;;4.73;2.20;;;19.70;93.40;;;;;;4981827;28;20201;-68
2023/07/06 00:09:57;;;;;;;1.83;1.67;;;19.80;93.50;;;;;;4974448;28;20758;-69
2023/07/06 00:12:24;;;;;;;4.97;2.53;;;19.90;93.70;;;;;;4974698;28;20190;-69
2023/07/06 00:14:50;;;;;;;5.07;2.30;;;19.90;93.60;;;;;;4974375;28;20428;-69
2023/07/06 00:17:16;;;;;;;3.17;2.23;;;19.90;93.50;;;;;;4974020;28;20413;-68
2023/07/06 00:19:42;;;;;;;3.23;2.40;;;19.90;93.60;;;;;;4974259;28;20829;-68
2023/07/06 00:22:10;;;;;;;3.37;2.07;;;19.90;94.00;;;;;;4956154;28;20417;-69
2023/07/06 00:24:36;;;;;;;3.47;2.40;;;19.70;94.20;;;;;;4974272;28;20439;-68
2023/07/06 00:27:02;;;;;;;1.90;1.70;;;19.70;94.50;;;;;;4974211;28;20539;-69
2023/07/06 00:29:33;;;;;;;2.57;2.30;;;19.70;94.60;;;;;;4973954;28;20572;-68
2023/07/06 00:32:26;;;;;;;3.90;2.60;;;19.60;94.70;;;;;;4973950;28;20153;-68
2023/07/06 00:34:52;;;;;;;4.33;2.77;;;19.60;94.90;;;;;;4974441;28;20931;-69
2023/07/06 00:37:20;;;;;;;3.10;2.37;;;19.60;95.10;;;;;;4982001;28;20515;-68
2023/07/06 00:39:45;;;;;;;3.53;2.70;;;19.60;95.10;;;;;;4993056;28;20455;-70
2023/07/06 00:42:15;;;;;;;2.10;1.90;;;19.60;95.30;;;;;;4993355;28;20447;-69
2023/07/06 00:44:57;;;;;;;3.20;2.33;;;19.60;95.10;;;;;;4992968;28;20287;-69
2023/07/06 00:47:44;;;;;;;2.40;2.17;;;19.70;95.20;;;;;;4993155;28;20459;-69
2023/07/06 00:50:15;;;;;;;4.70;2.60;;;19.70;95.10;;;;;;4992703;28;20419;-69
2023/07/06 00:52:48;;;;;;;3.33;2.33;;;19.70;95.10;;;;;;4992895;28;20419;-69
2023/07/06 00:55:16;;;;;;;3.40;2.20;;;19.60;95.20;;;;;;4993365;28;20420;-69
2023/07/06 00:57:44;;;;;;;2.97;2.43;;;19.60;95.30;;;;;;4993327;28;20450;-69
2023/07/06 01:00:12;;;;;;;2.60;2.20;;;19.60;95.30;;;;;;4993776;28;20488;-69
2023/07/06 01:02:40;;;;;;;4.77;2.50;;;19.50;95.30;;;;;;4993405;28;20426;-69
2023/07/06 01:05:10;;;;;;;3.33;2.23;;;19.60;95.60;;;;;;4975530;28;20440;-69
2023/07/06 01:07:39;;;;;;;3.50;2.40;;;19.50;95.60;;;;;;4992819;28;20451;-69
2023/07/06 01:10:05;;;;;;;3.60;2.57;;;19.50;96.00;;;;;;4992724;28;20404;-69
2023/07/06 01:12:31;;;;;;;2.57;1.80;;;19.40;96.10;;;;;;4993426;28;20419;-69
2023/07/06 01:14:57;;;;;;;2.50;2.00;;;19.40;96.20;;;;;;4997212;28;20781;-69
2023/07/06 01:17:46;;;;;;;4.57;3.10;;;19.40;96.50;;;;;;4996961;28;20487;-69
2023/07/06 01:20:22;;;;;;;2.90;2.23;;;19.40;96.30;;;;;;4986476;28;20707;-69
2023/07/06 01:23:16;;;;;;;3.60;2.40;;;19.40;96.50;;;;;;4996378;28;20388;-69
2023/07/06 01:26:19;;;;;;;1.97;1.77;;;19.30;96.60;;;;;;4996991;28;20454;-69
2023/07/06 01:29:12;;;;;;;3.40;2.63;;;19.30;96.80;;;;;;4996608;28;20403;-69
2023/07/06 01:31:37;;;;;;;3.33;2.20;;;19.20;97.10;;;;;;4996750;28;20847;-69
2023/07/06 01:34:10;;;;;;;2.30;2.10;;;19.20;97.10;;;;;;4996236;28;20424;-69
2023/07/06 01:37:22;;;;;;;2.37;2.10;;;19.10;97.20;;;;;;4996407;28;20292;-69
2023/07/06 01:39:48;;;;;;;3.87;2.77;;;19.10;97.30;;;;;;4996807;28;20546;-69
2023/07/06 01:42:14;;;;;;;3.50;2.60;;;19.10;97.70;;;;;;4996576;28;20439;-68
2023/07/06 01:44:46;;;;;;;2.67;2.33;;;19.10;97.70;;;;;;4996200;28;20596;-69
2023/07/06 01:47:14;;;;;;;3.30;2.10;;;19.00;97.70;;;;;;4996578;28;20254;-68
2023/07/06 01:49:40;;;;;;;3.37;2.90;;;18.90;97.80;;;;;;4996123;28;20783;-68
2023/07/06 01:52:33;;;;;;;3.23;2.53;;;18.70;98.10;;;;;;4996006;28;20411;-68
2023/07/06 01:55:22;;;;;;;2.50;2.20;;;18.70;98.60;;;;;;4996324;28;20450;-68
2023/07/06 01:58:12;;;;;;;3.50;2.67;;;18.60;99.10;;;;;;4986771;28;20416;-68
2023/07/06 02:00:42;;;;;;;4.07;2.53;;;18.50;99.70;;;;;;4996330;28;20776;-68
2023/07/06 02:03:09;;;;;;;3.90;2.90;;;18.40;99.60;;;;;;4996295;28;20403;-68
2023/07/06 02:05:38;;;;;;;3.00;2.60;;;18.40;99.50;;;;;;4995976;28;20471;-68
2023/07/06 02:08:09;;;;;;;3.17;2.60;;;18.30;99.90;;;;;;4994650;28;20428;-68
2023/07/06 02:10:35;;;;;;;3.40;2.30;;;18.10;99.90;;;;;;4995805;28;20411;-68
2023/07/06 02:13:01;;;;;;;3.00;2.50;;;18.10;99.90;;;;;;4995679;28;20412;-68
2023/07/06 02:15:27;;;;;;;3.27;2.50;;;18.10;99.90;;;;;;4995586;28;20197;-68
2023/07/06 02:17:55;;;;;;;3.83;2.43;;;18.00;99.90;;;;;;4995917;28;20181;-69
2023/07/06 02:20:21;;;;;;;3.13;2.37;;;18.00;99.90;;;;;;4995575;28;20495;-68
2023/07/06 02:22:46;;;;;;;3.07;2.67;;;18.00;99.90;;;;;;4995010;28;20512;-68
2023/07/06 02:25:12;;;;;;;3.80;2.50;;;18.00;99.90;;;;;;4994067;28;20203;-68
2023/07/06 02:27:38;;;;;;;3.37;2.40;;;18.10;99.90;;;;;;4995822;28;20196;-69
2023/07/06 02:30:05;;;;;;;4.50;2.73;;;18.10;99.90;;;;;;4996080;28;20404;-68
2023/07/06 02:32:32;;;;;;;3.10;2.10;;;18.10;99.90;;;;;;4995604;28;20590;-68
2023/07/06 02:34:57;;;;;;;3.00;2.30;;;18.10;99.90;;;;;;4995278;28;20430;-68
2023/07/06 02:37:23;;;;;;;2.80;2.40;;;18.10;99.90;;;;;;4994864;28;20419;-68
2023/07/06 02:39:52;;;;;;;2.93;2.60;;;18.00;99.90;;;;;;4995261;28;20191;-68
2023/07/06 02:42:18;;;;;;;3.67;2.30;;;18.00;99.90;;;;;;4995392;28;20173;-68
2023/07/06 02:44:44;;;;;;;3.20;2.43;;;17.90;99.90;;;;;;4993528;28;20905;-68
2023/07/06 02:47:10;;;;;;;3.77;2.33;;;17.90;99.90;;;;;;4994615;28;20486;-69
2023/07/06 02:49:36;;;;;;;2.97;2.53;;;17.80;99.90;;;;;;4995103;28;20571;-68
2023/07/06 02:52:02;;;;;;;4.30;2.50;;;17.80;99.90;;;;;;4994939;28;20454;-68
2023/07/06 02:54:28;;;;;;;2.50;2.30;;;17.80;99.90;;;;;;4994252;28;20228;-68
2023/07/06 02:56:55;;;;;;;2.13;1.93;;;17.80;99.90;;;;;;4994838;28;20454;-69
2023/07/06 02:59:21;;;;;;;3.50;2.50;;;17.80;99.90;;;;;;4994683;28;20524;-68
2023/07/06 03:01:47;;;;;;;2.30;1.90;;;17.80;99.90;;;;;;4994829;28;20419;-68
2023/07/06 03:04:12;;;;;;;3.93;2.53;;;17.80;99.90;;;;;;4994565;28;20193;-68
2023/07/06 03:06:39;;;;;;;3.53;2.73;;;17.80;99.90;;;;;;4994311;28;20192;-69
2023/07/06 03:09:07;;;;;;;8.10;3.00;;;17.80;99.90;;;;;;4994711;28;20164;-68
2023/07/06 03:11:33;;;;;;;2.33;2.13;;;17.80;99.90;;;;;;4994786;28;20415;-68
2023/07/06 03:13:59;;;;;;;2.87;2.50;;;17.60;99.90;;;;;;4994732;28;20550;-68
2023/07/06 03:16:26;;;;;;;3.27;2.80;;;17.50;99.90;;;;;;4994706;28;20192;-68
2023/07/06 03:18:51;;;;;;;5.00;2.60;;;17.30;99.90;;;;;;4993943;28;20404;-68
2023/07/06 03:21:17;;;;;;;4.30;2.80;;;17.30;99.90;;;;;;4994286;28;20474;-69
2023/07/06 03:23:42;;;;;;;2.33;2.07;;;17.30;99.90;;;;;;4994085;28;20616;-68
2023/07/06 03:26:08;;;;;;;3.30;2.47;;;17.20;99.90;;;;;;4994449;28;20275;-68
2023/07/06 03:28:35;;;;;;;3.37;2.60;;;17.20;99.90;;;;;;4994282;28;20171;-69
2023/07/06 03:31:01;;;;;;;3.87;2.80;;;17.10;99.90;;;;;;4994524;28;20470;-69
2023/07/06 03:33:27;;;;;;;3.10;2.60;;;17.10;99.90;;;;;;4976777;28;20420;-68
2023/07/06 03:35:54;;;;;;;5.13;2.93;;;17.10;99.90;;;;;;4994814;28;20165;-68
2023/07/06 03:38:25;;;;;;;2.83;2.30;;;17.10;99.90;;;;;;4993793;28;20482;-68
2023/07/06 03:40:51;;;;;;;4.57;2.47;;;17.10;99.90;;;;;;4994387;28;20410;-68
2023/07/06 03:43:17;;;;;;;2.47;2.23;;;17.10;99.90;;;;;;4993786;28;20797;-68
2023/07/06 03:45:46;;;;;;;3.30;2.43;;;17.10;99.90;;;;;;4993778;28;20183;-68
2023/07/06 03:48:12;;;;;;;4.33;2.53;;;17.00;99.90;;;;;;4994217;28;20510;-68
2023/07/06 03:50:37;;;;;;;2.70;2.47;;;16.90;99.90;;;;;;4994119;28;20416;-68
2023/07/06 03:53:03;;;;;;;3.00;2.37;;;16.90;99.90;;;;;;4993396;28;20412;-68
2023/07/06 03:55:28;;;;;;;3.13;2.50;;;17.00;99.90;;;;;;4993749;28;20275;-68
2023/07/06 03:57:54;;;;;;;4.10;2.13;;;17.00;99.90;;;;;;4993759;28;20187;-68
2023/07/06 04:00:22;;;;;;;6.67;3.23;;;17.00;99.90;;;;;;4993921;28;20180;-68
2023/07/06 04:02:49;;;;;;;3.87;2.10;;;17.00;99.90;;;;;;4993935;28;20212;-68
2023/07/06 04:05:17;;;;;;;4.47;2.60;;;17.00;99.90;;;;;;4993893;28;20449;-68
2023/07/06 04:07:52;;;;;;;4.13;2.47;;;17.00;99.90;;;;;;4982579;28;20445;-68
2023/07/06 04:10:18;;;;;;;4.10;3.20;;;17.00;99.90;;;;;;4974466;28;20490;-68
2023/07/06 04:12:44;;;;;;;2.60;2.13;;;17.00;99.90;;;;;;4974052;28;20408;-68
2023/07/06 04:15:10;;;;;;;2.63;2.27;;;17.00;99.90;;;;;;4974035;28;20479;-68
2023/07/06 04:17:36;;;;;;;3.40;2.33;;;17.10;99.90;;;;;;4974405;28;20185;-68
2023/07/06 04:20:10;;;;;;;2.47;2.13;;;17.10;99.90;;;;;;4974089;28;20519;-68
2023/07/06 04:22:36;;;;;;;4.30;2.47;;;17.10;99.90;;;;;;4973774;28;20184;-68
2023/07/06 04:25:04;;;;;;;3.50;2.50;;;17.10;99.90;;;;;;4973890;28;20471;-68
2023/07/06 04:27:30;;;;;;;4.33;2.80;;;17.10;99.90;;;;;;4974092;28;20551;-68
2023/07/06 04:29:55;;;;;;;4.07;2.40;;;17.10;99.90;;;;;;4974060;28;20495;-68
2023/07/06 04:32:23;;;;;;;3.53;2.20;;;17.00;99.90;;;;;;4974159;28;20181;-68
2023/07/06 04:34:49;;;;;;;3.50;2.43;;;17.10;99.90;;;;;;4973774;28;20200;-68
2023/07/06 04:37:16;;;;;;;3.20;2.10;;;17.10;99.90;;;;;;4973759;28;20476;-68
2023/07/06 04:39:42;;;;;;;3.53;2.33;;;17.10;99.90;;;;;;4973678;28;20668;-69
2023/07/06 04:42:08;;;;;;;2.80;2.30;;;17.10;99.90;;;;;;4973821;28;20900;-68
2023/07/06 04:44:34;;;;;;;2.80;2.23;;;17.10;99.90;;;;;;4973842;28;20953;-68
2023/07/06 04:47:00;;;;;;;3.50;2.67;;;17.20;99.90;;;;;;4973760;28;20452;-68
2023/07/06 04:49:25;;;;;;;2.40;2.03;;;17.10;99.90;;;;;;4977288;28;20780;-68
2023/07/06 04:51:51;;;;;;;3.93;2.27;;;17.10;99.90;;;;;;4960192;28;20537;-68
2023/07/06 04:54:17;;;;;;;2.73;2.10;;;17.10;99.90;;;;;;4977378;28;20196;-68
2023/07/06 04:56:42;;;;;;;5.30;3.30;;;17.20;99.90;;;;;;4992017;28;20600;-68
2023/07/06 04:59:08;;;;;;;3.73;3.43;;;17.20;99.90;;;;;;4997080;28;20295;-68
2023/07/06 05:01:34;;;;;;;3.97;2.70;;;17.10;99.90;;;;;;4996718;28;20223;-68
2023/07/06 05:03:59;;;;;;;7.53;3.77;;;17.20;99.90;;;;;;4997033;28;20243;-68
2023/07/06 05:06:25;;;;;;;4.10;3.10;;;17.20;99.90;;;;;;4996724;28;20562;-68
2023/07/06 05:08:52;;;;;;;3.23;2.60;;;17.30;99.90;;;;;;4995780;28;20215;-68
2023/07/06 05:11:18;;;;;;;2.30;2.10;;;17.20;99.90;;;;;;4997177;28;20169;-68
2023/07/06 05:13:45;;;;;;;4.67;2.80;;;17.40;99.90;;;;;;4997042;28;20427;-68
2023/07/06 05:16:11;;;;;;;4.83;2.90;;;17.50;99.90;;;;;;4996850;28;20408;-68
2023/07/06 05:18:36;;;;;;;2.90;2.60;;;17.70;99.90;;;;;;4996938;28;20871;-68
2023/07/06 05:21:02;;;;;;;3.97;2.90;;;17.90;99.90;;;;;;4996650;28;20218;-68
2023/07/06 05:23:28;;;;;;;4.53;2.90;;;18.10;99.90;;;;;;4996075;28;20173;-68
2023/07/06 05:25:56;;;;;;;5.83;2.73;;;18.30;99.90;;;;;;4996934;28;20224;-68
2023/07/06 05:28:22;;;;;;;4.80;2.70;;;18.50;99.90;;;;;;4997284;28;20434;-69
2023/07/06 05:30:49;;;;;;;3.47;2.63;;;18.60;99.90;;;;;;4996191;28;20792;-69
2023/07/06 05:33:15;;;;;;;3.83;2.63;;;18.70;99.90;;;;;;4996396;28;20403;-69
2023/07/06 05:35:42;;;;;;;4.70;2.90;;;18.80;99.90;;;;;;4996944;28;20403;-68
2023/07/06 05:38:10;;;;;;;5.00;2.50;;;18.90;99.90;;;;;;4996112;28;20450;-69
2023/07/06 05:40:38;;;;;;;5.47;2.50;;;19.00;99.90;;;;;;4996749;28;20412;-68
2023/07/06 05:43:03;;;;;;;4.07;2.70;;;19.10;99.90;;;;;;4996852;28;20430;-68
2023/07/06 05:45:29;;;;;;;6.30;2.57;;;19.20;99.90;;;;;;4996497;28;20440;-69
2023/07/06 05:47:55;;;;;;;4.63;2.73;;;19.40;99.90;;;;;;4996218;28;20239;-68
2023/07/06 05:50:20;;;;;;;4.60;2.90;;;19.50;99.90;;;;;;4996068;28;20177;-68
2023/07/06 05:52:46;;;;;;;3.47;2.70;;;19.60;99.90;;;;;;4995968;28;20176;-69
2023/07/06 05:55:12;;;;;;;3.77;2.80;;;19.70;99.90;;;;;;4995910;28;20184;-69
2023/07/06 05:57:38;;;;;;;3.00;2.50;;;19.80;99.90;;;;;;4996884;28;20200;-69
2023/07/06 06:00:09;;;;;;;4.23;3.10;;;19.90;99.90;;;;;;4978451;28;20416;-68
2023/07/06 06:02:36;;;;;;;3.33;2.90;;;20.00;99.90;;;;;;4996112;28;20160;-69
2023/07/06 06:05:02;;;;;;;4.30;2.73;;;20.10;99.90;;;;;;4995837;28;20806;-68
2023/07/06 06:07:31;;;;;;;5.60;2.60;;;20.20;99.90;;;;;;4994646;28;20455;-68
2023/07/06 06:09:57;;;;;;;6.20;3.77;;;20.40;99.90;;;;;;4978319;28;20420;-69
2023/07/06 06:12:24;;;;;;;6.87;3.83;;;20.50;99.90;;;;;;4995772;28;20411;-69
2023/07/06 06:14:50;;;;;;;6.33;3.30;;;20.60;99.90;;;;;;4995810;28;20482;-68
2023/07/06 06:17:18;;;;;;;5.23;3.83;;;20.30;99.90;;;;;;4996353;28;20416;-69
2023/07/06 06:19:45;;;;;;;4.40;3.57;;;20.30;99.90;;;;;;4995920;28;20423;-68
2023/07/06 06:22:12;;;;;;;4.33;3.37;;;19.80;99.90;;;;;;4978263;28;20420;-68
2023/07/06 06:24:38;;;;;;;8.30;3.63;;;19.30;99.90;;;;;;4995468;28;20436;-68
2023/07/06 06:27:05;;;;;;;5.20;4.13;;;19.30;99.90;;;;;;4995885;28;20470;-69
2023/07/06 06:29:32;;;;;;;5.23;3.83;;;19.20;99.90;;;;;;4995703;28;20169;-69
2023/07/06 06:31:59;;;;;;;7.20;3.70;;;19.30;99.90;;;;;;4995907;28;20404;-69
2023/07/06 06:34:25;;;;;;;4.83;3.70;;;19.70;99.90;;;;;;4995803;28;20451;-69
2023/07/06 06:36:51;;;;;;;7.67;4.17;;;19.80;99.90;;;;;;4995256;28;20447;-69
2023/07/06 06:39:17;;;;;;;8.37;4.37;;;19.90;99.90;;;;;;4995245;28;20466;-69
2023/07/06 06:41:43;;;;;;;3.60;2.63;;;19.80;99.90;;;;;;4995224;28;20408;-69
2023/07/06 06:44:11;;;;;;;4.77;3.30;;;19.60;99.90;;;;;;4977788;28;20212;-69
2023/07/06 06:46:37;;;;;;;4.93;3.17;;;19.80;99.90;;;;;;4995435;28;20479;-68
2023/07/06 06:49:02;;;;;;;6.07;3.17;;;20.00;99.90;;;;;;4995652;28;20447;-69
2023/07/06 06:51:29;;;;;;;3.43;3.13;;;19.90;99.90;;;;;;4995337;28;20177;-69
2023/07/06 06:53:55;;;;;;;4.77;2.90;;;19.90;99.90;;;;;;4994922;28;20188;-70
2023/07/06 06:56:22;;;;;;;2.80;2.50;;;20.00;99.90;;;;;;4995098;28;20411;-69
2023/07/06 06:58:48;;;;;;;5.20;2.70;;;20.30;99.30;;;;;;4994912;28;20569;-68
2023/07/06 07:01:13;;;;;;;6.77;3.00;;;20.60;99.00;;;;;;4995185;28;20408;-69
2023/07/06 07:03:39;;;;;;;4.70;2.80;;;20.60;99.00;;;;;;4995269;28;20205;-69
2023/07/06 07:06:13;;;;;;;3.10;2.30;;;20.50;98.00;;;;;;4995170;28;20196;-68
2023/07/06 07:08:44;;;;;;;7.23;3.30;;;20.30;98.20;;;;;;4993911;28;20222;-70
2023/07/06 07:11:10;;;;;;;4.83;2.73;;;20.40;98.40;;;;;;4994627;28;20432;-69
2023/07/06 07:13:37;;;;;;;7.30;2.53;;;20.40;97.60;;;;;;4978355;28;20483;-71
2023/07/06 07:16:04;;;;;;;4.43;2.50;;;20.60;97.50;;;;;;4994888;28;20512;-71
2023/07/06 07:18:30;;;;;;;2.93;2.37;;;20.50;97.20;;;;;;4994802;28;20474;-69
2023/07/06 07:20:56;;;;;;;4.67;2.37;;;20.30;97.40;;;;;;4994812;28;20506;-70
2023/07/06 07:23:23;;;;;;;5.93;3.17;;;20.30;98.00;;;;;;4994371;28;20440;-68
2023/07/06 07:25:49;;;;;;;4.40;2.80;;;20.30;98.20;;;;;;4994802;28;20172;-67
2023/07/06 07:28:18;;;;;;;4.53;2.93;;;20.50;98.40;;;;;;4994905;28;20408;-68
2023/07/06 07:30:56;;;;;;;6.47;2.70;;;20.90;98.00;;;;;;4994712;28;20450;-69
2023/07/06 07:33:22;;;;;;;5.33;2.80;;;21.10;97.40;;;;;;4994935;28;20406;-68
2023/07/06 07:35:48;;;;;;;5.20;2.80;;;21.20;96.70;;;;;;4994118;28;20804;-68
2023/07/06 07:38:16;;;;;;;3.37;2.57;;;20.80;96.70;;;;;;4994141;28;20411;-68
2023/07/06 07:40:56;;;;;;;5.30;2.77;;;20.40;97.00;;;;;;4977333;28;20447;-69
2023/07/06 07:43:29;;;;;;;3.97;2.97;;;20.60;97.30;;;;;;4994586;28;20862;-69
2023/07/06 07:45:56;;;;;;;5.57;2.60;;;20.80;96.90;;;;;;4993529;28;20404;-70
2023/07/06 07:48:26;;;;;;;5.90;2.27;;;20.90;96.30;;;;;;4976380;28;20443;-68
2023/07/06 07:50:53;;;;;;;4.17;2.57;;;20.90;95.80;;;;;;4993352;28;20852;-68
2023/07/06 07:53:24;;;;;;;3.63;2.27;;;20.80;95.00;;;;;;4993129;28;20414;-69
2023/07/06 07:55:50;;;;;;;2.70;2.40;;;20.80;94.80;;;;;;4993376;28;20896;-68
2023/07/06 07:58:16;;;;;;;3.13;2.40;;;20.70;95.00;;;;;;4993703;28;20396;-68
2023/07/06 08:00:50;;;;;;;3.87;2.70;;;20.80;95.40;;;;;;4993403;28;20487;-69
2023/07/06 08:03:16;;;;;;;6.33;2.60;;;20.90;95.00;;;;;;4993237;28;20405;-68
2023/07/06 08:05:42;;;;;;;3.20;2.50;;;20.90;94.50;;;;;;4993603;28;20816;-69
2023/07/06 08:08:10;;;;;;;3.83;2.50;;;21.10;94.50;;;;;;4992706;28;20843;-70
2023/07/06 08:10:36;;;;;;;5.00;1.90;;;21.50;94.50;;;;;;4993036;28;20403;-68
2023/07/06 08:13:03;;;;;;;2.97;2.20;;;22.00;94.30;;;;;;4993404;28;20499;-68
2023/07/06 08:15:29;;;;;;;5.40;2.90;;;22.20;93.20;;;;;;4993406;28;20487;-69
2023/07/06 08:18:00;;;;;;;3.10;2.60;;;22.20;92.70;;;;;;4993732;28;20829;-69
2023/07/06 08:20:28;;;;;;;3.77;2.63;;;22.20;93.20;;;;;;4993454;28;20208;-68
2023/07/06 08:22:57;;;;;;;4.53;2.63;;;22.30;92.70;;;;;;4992851;28;20495;-69
2023/07/06 08:25:24;;;;;;;3.00;2.50;;;22.30;92.00;;;;;;4975332;28;20511;-68
2023/07/06 08:27:52;;;;;;;5.73;2.33;;;22.40;92.10;;;;;;4992764;28;20451;-70
2023/07/06 08:30:20;;;;;;;3.50;2.90;;;22.50;92.40;;;;;;4993006;28;20490;-68
2023/07/06 08:32:48;;;;;;;3.80;2.57;;;22.30;91.80;;;;;;4992774;28;20408;-68
2023/07/06 08:35:15;;;;;;;4.03;2.73;;;22.10;92.10;;;;;;4993067;28;20424;-68
2023/07/06 08:37:40;;;;;;;5.20;2.97;;;22.10;91.90;;;;;;4992860;28;20910;-68
2023/07/06 08:40:11;;;;;;;2.60;2.20;;;22.20;91.90;;;;;;4992587;28;20407;-68
2023/07/06 08:42:37;;;;;;;3.00;2.47;;;22.30;91.60;;;;;;4993327;28;20570;-69
2023/07/06 08:45:03;;;;;;;4.15;2.60;;;22.60;91.20;;;;;;4953722;28;1141504;-68
2023/07/06 08:47:29;;;;;;;3.77;2.83;;;22.90;91.80;;;;;;4993756;28;20620;-71
2023/07/06 08:49:56;;;;;;;2.97;2.67;;;22.50;90.90;;;;;;4993308;28;20404;-68
2023/07/06 08:52:24;;;;;;;2.97;2.50;;;22.70;90.80;;;;;;4993106;28;20259;-69
2023/07/06 08:54:51;;;;;;;4.40;3.13;;;22.90;90.20;;;;;;4992773;28;21004;-71
2023/07/06 08:57:21;;;;;;;5.10;2.93;;;23.10;89.40;;;;;;4993238;28;20783;-70
2023/07/06 08:59:49;;;;;;;3.27;2.87;;;23.30;88.40;;;;;;4993797;28;20392;-70
2023/07/06 09:02:23;;;;;;;2.60;2.37;;;23.50;87.80;;;;;;4993662;28;20898;-70
2023/07/06 09:04:51;;;;;;;4.27;2.40;;;23.50;87.10;;;;;;4993273;28;20430;-68
2023/07/06 09:07:32;;;;;;;4.93;2.40;;;23.70;86.50;;;;;;4992571;28;20944;-71
2023/07/06 09:09:58;;;;;;;4.93;3.07;;;23.50;85.20;;;;;;4993150;28;20470;-69
2023/07/06 09:12:31;;;;;;;3.70;2.77;;;23.30;86.30;;;;;;4993791;28;20415;-69
2023/07/06 09:14:59;;;;;;;3.90;2.40;;;23.40;86.20;;;;;;4993857;28;20424;-71
2023/07/06 09:17:26;;;;;;;2.90;2.33;;;23.40;85.30;;;;;;4993563;28;20399;-71
2023/07/06 09:19:53;;;;;;;4.00;2.90;;;23.50;84.60;;;;;;4993278;28;20408;-70
2023/07/06 09:22:22;;;;;;;2.77;2.40;;;23.50;82.70;;;;;;4993090;28;20404;-70
2023/07/06 09:24:49;;;;;;;3.13;2.63;;;23.50;83.20;;;;;;4993167;28;20486;-68
2023/07/06 09:27:22;;;;;;;4.00;2.47;;;23.60;82.30;;;;;;4993909;28;20550;-68
2023/07/06 09:30:06;;;;;;;4.40;2.80;;;23.90;82.70;;;;;;4993737;28;20400;-69
2023/07/06 09:32:33;;;;;;;3.23;2.70;;;23.70;81.50;;;;;;4992676;28;20407;-70
2023/07/06 09:35:11;;;;;;;3.70;2.20;;;23.70;79.70;;;;;;4995458;28;20455;-70
2023/07/06 09:37:45;;;;;;;4.63;2.60;;;23.60;80.80;;;;;;4996534;28;20415;-68
2023/07/06 09:40:11;;;;;;;7.47;2.93;;;24.00;79.70;;;;;;4996557;28;20439;-69
2023/07/06 09:42:37;;;;;;;5.30;3.50;;;24.50;80.20;;;;;;4997086;28;20412;-67
2023/07/06 09:45:22;;;;;;;3.53;2.57;;;24.80;79.80;;;;;;4996612;28;20538;-67
2023/07/06 09:47:54;;;;;;;5.43;2.77;;;25.10;78.30;;;;;;4997097;28;20212;-68
2023/07/06 09:50:37;;;;;;;4.87;3.43;;;25.40;77.60;;;;;;4996835;28;20388;-68
2023/07/06 09:53:07;;;;;;;3.40;2.87;;;25.20;77.10;;;;;;4996669;28;20525;-69
2023/07/06 09:55:33;;;;;;;3.97;3.33;;;25.30;78.70;;;;;;4996636;28;20426;-70
2023/07/06 09:58:00;;;;;;;4.67;2.90;;;25.10;76.90;;;;;;4996476;28;20412;-69
2023/07/06 10:00:36;;;;;;;3.70;3.03;;;24.30;77.00;;;;;;4996628;28;20168;-68
2023/07/06 10:03:14;;;;;;;5.80;2.90;;;24.30;77.30;;;;;;4996899;28;20412;-69
2023/07/06 10:05:49;;;;;;;3.40;3.00;;;24.20;78.10;;;;;;4996283;28;20522;-69
2023/07/06 10:08:24;;;;;;;4.57;3.07;;;24.30;78.40;;;;;;4995063;28;20451;-69
2023/07/06 10:11:21;;;;;;;4.57;2.57;;;24.40;79.00;;;;;;4996523;28;20803;-69
2023/07/06 10:14:05;;;;;;;2.73;2.53;;;24.90;78.40;;;;;;4996024;28;20431;-69
2023/07/06 10:16:47;;;;;;;4.20;2.33;;;24.70;76.50;;;;;;4996442;28;20403;-70
2023/07/06 10:19:32;;;;;;;4.60;2.70;;;24.50;77.00;;;;;;4996346;28;20407;-68
2023/07/06 10:22:14;;;;;;;5.67;2.57;;;24.80;77.40;;;;;;4995716;28;20899;-68
2023/07/06 10:25:18;;;;;;;2.40;2.20;;;24.80;76.60;;;;;;4978664;28;20527;-68
2023/07/06 10:27:49;;;;;;;3.17;2.50;;;25.20;75.90;;;;;;4996642;28;20454;-68
2023/07/06 10:30:31;;;;;;;6.70;3.27;;;25.40;74.10;;;;;;4996198;28;20396;-67
2023/07/06 10:32:58;;;;;;;3.47;2.50;;;25.50;72.50;;;;;;4996374;28;20454;-68
2023/07/06 10:35:29;;;;;;;3.23;2.93;;;25.50;71.80;;;;;;4995608;28;20434;-68
2023/07/06 10:37:56;;;;;;;3.30;3.00;;;25.30;72.80;;;;;;4995769;28;20631;-68
2023/07/06 10:40:25;;;;;;;4.77;2.80;;;25.20;71.90;;;;;;4995707;28;20412;-69
2023/07/06 10:43:13;;;;;;;7.70;3.23;;;24.90;72.70;;;;;;4996085;28;20513;-69
2023/07/06 10:45:46;;;;;;;3.73;2.87;;;25.20;71.20;;;;;;4994151;28;20996;-68
2023/07/06 10:48:16;;;;;;;5.00;3.00;;;25.50;71.70;;;;;;4995116;28;20479;-69
2023/07/06 10:50:49;;;;;;;3.87;2.87;;;25.70;69.80;;;;;;4995276;28;20926;-69
2023/07/06 10:53:40;;;;;;;6.07;2.80;;;25.80;69.40;;;;;;4995411;28;20736;-69
2023/07/06 10:56:15;;;;;;;4.70;2.90;;;26.10;70.00;;;;;;4995564;28;20384;-69
2023/07/06 10:58:57;;;;;;;3.33;2.80;;;26.40;69.70;;;;;;4995389;28;20404;-68
2023/07/06 11:01:29;;;;;;;5.70;2.80;;;26.40;67.30;;;;;;4995575;28;20400;-69
2023/07/06 11:03:55;;;;;;;3.23;2.93;;;26.40;67.30;;;;;;4995989;28;20427;-68
2023/07/06 11:06:40;;;;;;;3.63;2.73;;;26.40;67.30;;;;;;4995186;28;20460;-68
2023/07/06 11:09:07;;;;;;;4.30;2.77;;;26.50;67.80;;;;;;4994253;28;20422;-69
2023/07/06 11:11:49;;;;;;;4.70;2.97;;;26.60;67.80;;;;;;4995343;28;20428;-68
2023/07/06 11:14:35;;;;;;;4.30;2.83;;;25.80;68.80;;;;;;4995129;28;20952;-68
2023/07/06 11:17:10;;;;;;;3.00;2.47;;;25.60;69.30;;;;;;4995423;28;20380;-69
2023/07/06 11:19:57;;;;;;;3.40;2.80;;;25.40;69.20;;;;;;4994995;28;20388;-69
2023/07/06 11:22:24;;;;;;;3.93;2.97;;;25.60;69.40;;;;;;4992441;28;20392;-69
2023/07/06 11:24:55;;;;;;;3.90;2.33;;;25.70;69.20;;;;;;4994259;28;20933;-69
2023/07/06 11:27:31;;;;;;;3.40;2.73;;;25.60;69.00;;;;;;4995004;28;20447;-68
2023/07/06 11:30:08;;;;;;;4.40;2.80;;;25.30;69.10;;;;;;4994770;28;20890;-67
2023/07/06 11:32:41;;;;;;;3.27;2.90;;;25.40;69.00;;;;;;4994648;28;20908;-66
2023/07/06 11:35:10;;;;;;;4.80;3.27;;;25.40;67.90;;;;;;4994912;28;20424;-71
2023/07/06 11:37:46;;;;;;;3.60;2.90;;;27.20;65.60;;;;;;4994393;28;20415;-70
2023/07/06 11:41:02;;;;;;;3.90;2.33;;;29.00;61.30;;;;;;4994885;28;20396;-72
2023/07/06 11:43:40;;;;;;;4.23;3.20;;;30.10;57.50;;;;;;4969365;28;20416;-72
2023/07/06 11:46:43;;;;;;;5.17;2.73;;;31.40;54.50;;;;;;4994955;28;20519;-69
2023/07/06 11:49:32;;;;;;;3.27;2.70;;;30.10;55.20;;;;;;4994585;28;20753;-68
2023/07/06 11:51:58;;;;;;;2.70;2.40;;;30.00;55.70;;;;;;4994132;28;20380;-69
2023/07/06 11:54:43;;;;;;;3.07;2.70;;;29.40;56.20;;;;;;4994003;28;20423;-71
2023/07/06 11:57:41;;;;;;;4.97;2.60;;;29.40;55.70;;;;;;4994102;28;20447;-71
2023/07/06 12:03:07;;;;;;;4.37;2.93;;;29.00;55.90;;;;;;4994613;28;20388;-71
2023/07/06 12:05:37;;;;;;;4.03;2.30;;;29.60;56.20;;;;;;4994082;28;20404;-71
2023/07/06 12:08:23;;;;;;;5.20;3.03;;;31.00;53.70;;;;;;4993296;28;20447;-73
2023/07/06 12:10:52;;;;;;;3.40;2.27;;;31.90;51.80;;;;;;4994492;28;20816;-73
2023/07/06 12:13:26;;;;;;;3.63;2.60;;;32.60;50.60;;;;;;4994441;28;20404;-73
2023/07/06 12:16:04;;;;;;;5.10;2.93;;;31.80;50.90;;;;;;4994002;28;20408;-77
2023/07/06 12:18:32;;;;;;;5.10;2.67;;;29.70;53.00;;;;;;4995629;28;20422;-74
2023/07/06 12:20:57;;;;;;;2.77;2.10;;;30.40;53.40;;;;;;4994313;28;20458;-76
2023/07/06 12:23:23;;;;;;;4.00;2.40;;;31.10;51.70;;;;;;4992450;28;20416;-70
2023/07/06 12:25:49;;;;;;;4.03;2.73;;;31.70;49.60;;;;;;4994787;28;20172;-72
2023/07/06 12:28:16;;;;;;;4.77;3.07;;;31.10;51.30;;;;;;4994809;28;20552;-72
2023/07/06 12:30:43;;;;;;;4.70;2.90;;;32.30;49.90;;;;;;4994432;28;20690;-72
2023/07/06 12:33:13;;;;;;;7.20;2.77;;;33.20;46.80;;;;;;4994358;28;20414;-71
2023/07/06 12:35:40;;;;;;;3.83;3.03;;;34.10;46.40;;;;;;4992576;28;20448;-73
2023/07/06 12:38:12;;;;;;;6.70;3.33;;;33.80;45.40;;;;;;4993631;28;20914;-74
2023/07/06 12:40:38;;;;;;;2.80;2.50;;;33.10;45.70;;;;;;4993918;28;20431;-74
2023/07/06 12:43:04;;;;;;;4.23;2.30;;;33.00;46.20;;;;;;4992456;28;20487;-75
2023/07/06 12:45:31;;;;;;;3.57;2.83;;;34.40;43.60;;;;;;4993983;28;20189;-75
2023/07/06 12:48:00;;;;;;;3.40;2.83;;;35.50;42.20;;;;;;4994281;28;20787;-77
2023/07/06 12:50:35;;;;;;;2.57;2.20;;;35.50;41.00;;;;;;4994138;28;20535;-73
2023/07/06 12:53:08;;;;;;;5.57;3.10;;;35.70;41.60;;;;;;4993695;28;20380;-74
2023/07/06 12:55:35;;;;;;;3.17;1.90;;;35.60;40.40;;;;;;4994040;28;20747;-73
2023/07/06 12:58:26;;;;;;;4.67;3.10;;;35.50;40.30;;;;;;4992257;28;20424;-73
2023/07/06 13:00:51;;;;;;;5.57;2.70;;;36.10;39.70;;;;;;4993899;28;20436;-73
2023/07/06 13:03:17;;;;;;;4.20;2.40;;;35.20;40.40;;;;;;4994065;28;20495;-72
2023/07/06 13:05:53;;;;;;;3.90;2.53;;;32.20;44.20;;;;;;4992879;28;20256;-73